バロー の空港の天気 - METARとTAF

Barrow, Wiley Post-Will Rogers Memorial Airport ( PABR / BRW ) - アメリカ アラスカ州バロー
飛行場実況気象(Metar)
観測時間08/22 08:12 AKDT (08/22 16:12 UTC)
風向・風速北 5m/s
視程10km以上
天気現象
少しの雲 雲底高度 210m
全天の8割程度の雲 雲底高度 400m
全天を覆う雲 雲底高度 640m
気温5℃
湿度86%
気圧1007hPa
METARPABR 221612Z 35010KT 10SM FEW007 BKN013 OVC021 05/03 A2974 RMK AO2 RAE04 P0000 T00500028
過去の天気等 Google飛行場航空写真 Wunderground天気予報

過去48時間のMETAR

飛行場予報(TAF)
発表時間: 8/22 03:21 AKDT (8/22 11:21 UTC)
予報対象時間: 22日4時 AKDT ~ 23日4時 AKDT
風向・風速北 4m/s
視程10km以上
天気現象周辺でしゅう雨
全天の4割程度の雲 雲底高度 430m
全天の8割程度の雲 雲底高度 730m
全天を覆う雲 雲底高度 880m
22日14時 AKDT から
風向・風速北北西 6m/s
視程10km以上
天気現象弱い雨 もや
全天を覆う雲 雲底高度 460m
22日23時 AKDT から
風向・風速西 6m/s
視程10km以上
天気現象弱い雨 もや
全天を覆う雲 雲底高度 210m
PABR 221121Z 2212/2312 35008KT P6SM VCSH SCT014 BKN024 OVC029
FM222200 34012KT 6SM -RA BR OVC015
FM230700 28012KT 6SM -RA BR OVC007